sensor_id;sensor_type;location;lat;lon;timestamp;pressure;altitude;pressure_sealevel;temperature;humidity
49342;BME280;35210;41.606;-87.602;2022-12-05T00:01:25;99738.59;;;4.47;40.74
49342;BME280;35210;41.606;-87.602;2022-12-05T00:03:56;99740.34;;;4.47;40.28
49342;BME280;35210;41.606;-87.602;2022-12-05T00:06:27;99741.94;;;4.32;40.96
49342;BME280;35210;41.606;-87.602;2022-12-05T00:08:57;99737.91;;;4.25;40.98
49342;BME280;35210;41.606;-87.602;2022-12-05T00:11:29;99739.75;;;4.23;41.03
49342;BME280;35210;41.606;-87.602;2022-12-05T00:13:59;99730.00;;;4.26;41.20
49342;BME280;35210;41.606;-87.602;2022-12-05T00:16:30;99736.50;;;4.18;42.21
49342;BME280;35210;41.606;-87.602;2022-12-05T00:18:59;99727.75;;;4.19;42.09
49342;BME280;35210;41.606;-87.602;2022-12-05T00:21:30;99732.34;;;4.14;42.24
49342;BME280;35210;41.606;-87.602;2022-12-05T00:23:59;99727.81;;;3.99;43.01
49342;BME280;35210;41.606;-87.602;2022-12-05T00:26:30;99725.19;;;3.99;42.52
49342;BME280;35210;41.606;-87.602;2022-12-05T00:28:58;99729.41;;;3.82;44.00
49342;BME280;35210;41.606;-87.602;2022-12-05T00:31:27;99721.38;;;3.87;43.91
49342;BME280;35210;41.606;-87.602;2022-12-05T00:33:58;99721.66;;;3.81;44.52
49342;BME280;35210;41.606;-87.602;2022-12-05T00:36:28;99718.97;;;3.63;44.84
49342;BME280;35210;41.606;-87.602;2022-12-05T00:38:58;99713.16;;;3.57;44.68
49342;BME280;35210;41.606;-87.602;2022-12-05T00:41:29;99714.59;;;3.64;44.97
49342;BME280;35210;41.606;-87.602;2022-12-05T00:43:59;99711.59;;;3.53;46.11
49342;BME280;35210;41.606;-87.602;2022-12-05T00:46:29;99715.56;;;3.61;45.65
49342;BME280;35210;41.606;-87.602;2022-12-05T00:48:59;99720.66;;;3.65;45.75
49342;BME280;35210;41.606;-87.602;2022-12-05T00:51:29;99717.34;;;3.61;46.27
49342;BME280;35210;41.606;-87.602;2022-12-05T00:53:58;99721.00;;;3.57;45.98
49342;BME280;35210;41.606;-87.602;2022-12-05T00:56:29;99717.94;;;3.47;46.07
49342;BME280;35210;41.606;-87.602;2022-12-05T00:58:59;99720.34;;;3.52;47.04
49342;BME280;35210;41.606;-87.602;2022-12-05T01:01:29;99709.13;;;3.50;46.55
49342;BME280;35210;41.606;-87.602;2022-12-05T01:03:59;99710.31;;;3.43;47.18
49342;BME280;35210;41.606;-87.602;2022-12-05T01:06:27;99719.81;;;3.44;46.96
49342;BME280;35210;41.606;-87.602;2022-12-05T01:08:56;99711.69;;;3.31;48.03
49342;BME280;35210;41.606;-87.602;2022-12-05T01:11:25;99702.53;;;3.41;46.96
49342;BME280;35210;41.606;-87.602;2022-12-05T01:13:55;99709.25;;;3.26;47.35
49342;BME280;35210;41.606;-87.602;2022-12-05T01:16:25;99725.69;;;3.28;48.10
49342;BME280;35210;41.606;-87.602;2022-12-05T01:18:54;99713.97;;;3.39;47.73
49342;BME280;35210;41.606;-87.602;2022-12-05T01:21:24;99710.63;;;3.35;48.26
49342;BME280;35210;41.606;-87.602;2022-12-05T01:23:52;99707.94;;;3.37;48.08
49342;BME280;35210;41.606;-87.602;2022-12-05T01:26:21;99709.91;;;3.32;48.06
49342;BME280;35210;41.606;-87.602;2022-12-05T01:28:51;99706.25;;;3.36;48.57
49342;BME280;35210;41.606;-87.602;2022-12-05T01:31:23;99712.66;;;3.28;48.48
49342;BME280;35210;41.606;-87.602;2022-12-05T01:33:52;99705.47;;;3.34;48.52
49342;BME280;35210;41.606;-87.602;2022-12-05T01:36:21;99703.31;;;3.23;48.43
49342;BME280;35210;41.606;-87.602;2022-12-05T01:38:50;99705.75;;;3.27;48.23
49342;BME280;35210;41.606;-87.602;2022-12-05T01:41:20;99709.13;;;3.29;48.95
49342;BME280;35210;41.606;-87.602;2022-12-05T01:44:07;99705.03;;;3.24;48.94
49342;BME280;35210;41.606;-87.602;2022-12-05T01:46:38;99706.84;;;3.22;48.84
49342;BME280;35210;41.606;-87.602;2022-12-05T01:49:13;99712.91;;;3.22;48.68
49342;BME280;35210;41.606;-87.602;2022-12-05T01:51:45;99707.16;;;3.14;48.72
49342;BME280;35210;41.606;-87.602;2022-12-05T01:54:15;99702.09;;;3.11;49.27
49342;BME280;35210;41.606;-87.602;2022-12-05T01:56:46;99700.50;;;3.07;49.28
49342;BME280;35210;41.606;-87.602;2022-12-05T01:59:16;99703.25;;;3.04;49.89
49342;BME280;35210;41.606;-87.602;2022-12-05T02:01:47;99693.78;;;3.02;49.45
49342;BME280;35210;41.606;-87.602;2022-12-05T02:04:16;99698.94;;;3.03;49.65
49342;BME280;35210;41.606;-87.602;2022-12-05T02:06:47;99701.19;;;2.92;50.25
49342;BME280;35210;41.606;-87.602;2022-12-05T02:09:15;99698.63;;;2.90;50.16
49342;BME280;35210;41.606;-87.602;2022-12-05T02:11:52;99692.50;;;2.91;50.82
49342;BME280;35210;41.606;-87.602;2022-12-05T02:14:27;99691.72;;;2.89;50.29
49342;BME280;35210;41.606;-87.602;2022-12-05T02:17:06;99692.88;;;2.82;50.59
49342;BME280;35210;41.606;-87.602;2022-12-05T02:19:53;99697.91;;;2.87;50.64
49342;BME280;35210;41.606;-87.602;2022-12-05T02:23:00;99693.63;;;2.86;50.52
49342;BME280;35210;41.606;-87.602;2022-12-05T02:25:51;99693.63;;;2.64;51.55
49342;BME280;35210;41.606;-87.602;2022-12-05T02:28:47;99698.03;;;2.84;50.90
49342;BME280;35210;41.606;-87.602;2022-12-05T02:31:26;99698.22;;;2.79;51.61
49342;BME280;35210;41.606;-87.602;2022-12-05T02:34:05;99701.03;;;2.75;51.77
49342;BME280;35210;41.606;-87.602;2022-12-05T02:36:41;99696.06;;;2.69;53.47
49342;BME280;35210;41.606;-87.602;2022-12-05T02:39:16;99685.75;;;2.66;52.17
49342;BME280;35210;41.606;-87.602;2022-12-05T02:41:49;99683.66;;;2.53;52.25
49342;BME280;35210;41.606;-87.602;2022-12-05T02:44:23;99683.16;;;2.44;52.72
49342;BME280;35210;41.606;-87.602;2022-12-05T02:46:56;99684.69;;;2.49;53.18
49342;BME280;35210;41.606;-87.602;2022-12-05T02:49:30;99686.69;;;2.43;53.42
49342;BME280;35210;41.606;-87.602;2022-12-05T02:52:02;99681.41;;;2.44;53.12
49342;BME280;35210;41.606;-87.602;2022-12-05T02:54:34;99681.88;;;2.32;53.60
49342;BME280;35210;41.606;-87.602;2022-12-05T02:57:05;99673.41;;;2.27;54.53
49342;BME280;35210;41.606;-87.602;2022-12-05T02:59:35;99677.97;;;2.22;54.14
49342;BME280;35210;41.606;-87.602;2022-12-05T03:02:07;99666.63;;;2.23;54.45
49342;BME280;35210;41.606;-87.602;2022-12-05T03:04:36;99674.69;;;2.17;54.55
49342;BME280;35210;41.606;-87.602;2022-12-05T03:07:08;99666.09;;;2.15;55.31
49342;BME280;35210;41.606;-87.602;2022-12-05T03:09:40;99664.63;;;2.08;55.35
49342;BME280;35210;41.606;-87.602;2022-12-05T03:12:14;99655.72;;;2.13;55.10
49342;BME280;35210;41.606;-87.602;2022-12-05T03:14:46;99651.63;;;2.08;55.09
49342;BME280;35210;41.606;-87.602;2022-12-05T03:17:20;99656.16;;;2.03;55.96
49342;BME280;35210;41.606;-87.602;2022-12-05T03:19:56;99660.56;;;2.01;55.55
49342;BME280;35210;41.606;-87.602;2022-12-05T03:22:30;99662.81;;;2.10;55.67
49342;BME280;35210;41.606;-87.602;2022-12-05T03:25:00;99664.50;;;2.11;55.53
49342;BME280;35210;41.606;-87.602;2022-12-05T03:27:35;99660.34;;;2.07;55.42
49342;BME280;35210;41.606;-87.602;2022-12-05T03:30:11;99659.59;;;2.03;55.65
49342;BME280;35210;41.606;-87.602;2022-12-05T03:32:47;99664.94;;;2.00;55.72
49342;BME280;35210;41.606;-87.602;2022-12-05T03:35:22;99668.69;;;1.93;55.31
49342;BME280;35210;41.606;-87.602;2022-12-05T03:37:53;99666.00;;;1.94;55.36
49342;BME280;35210;41.606;-87.602;2022-12-05T03:40:28;99664.31;;;1.93;55.52
49342;BME280;35210;41.606;-87.602;2022-12-05T03:43:04;99654.69;;;1.95;55.32
49342;BME280;35210;41.606;-87.602;2022-12-05T03:45:37;99657.63;;;1.86;55.55
49342;BME280;35210;41.606;-87.602;2022-12-05T03:48:15;99642.06;;;1.85;56.16
49342;BME280;35210;41.606;-87.602;2022-12-05T03:50:49;99649.16;;;1.81;55.77
49342;BME280;35210;41.606;-87.602;2022-12-05T03:53:23;99638.00;;;1.78;56.66
49342;BME280;35210;41.606;-87.602;2022-12-05T03:55:56;99642.25;;;1.80;55.91
49342;BME280;35210;41.606;-87.602;2022-12-05T03:58:29;99639.09;;;1.72;56.37
49342;BME280;35210;41.606;-87.602;2022-12-05T04:01:00;99641.28;;;1.83;56.69
49342;BME280;35210;41.606;-87.602;2022-12-05T04:03:37;99641.06;;;1.89;56.52
49342;BME280;35210;41.606;-87.602;2022-12-05T04:06:12;99648.13;;;1.85;56.39
49342;BME280;35210;41.606;-87.602;2022-12-05T04:08:47;99649.22;;;1.80;56.10
49342;BME280;35210;41.606;-87.602;2022-12-05T04:11:18;99652.50;;;1.85;56.13
49342;BME280;35210;41.606;-87.602;2022-12-05T04:13:51;99658.59;;;1.84;56.16
49342;BME280;35210;41.606;-87.602;2022-12-05T04:16:23;99655.31;;;1.79;56.00
49342;BME280;35210;41.606;-87.602;2022-12-05T04:19:15;99656.41;;;1.73;56.06
49342;BME280;35210;41.606;-87.602;2022-12-05T04:21:48;99645.75;;;1.79;56.36
49342;BME280;35210;41.606;-87.602;2022-12-05T04:24:20;99642.47;;;1.74;57.00
49342;BME280;35210;41.606;-87.602;2022-12-05T04:27:14;99643.31;;;1.75;57.16
49342;BME280;35210;41.606;-87.602;2022-12-05T04:29:56;99641.84;;;1.68;56.85
49342;BME280;35210;41.606;-87.602;2022-12-05T04:32:34;99639.88;;;1.51;57.74
49342;BME280;35210;41.606;-87.602;2022-12-05T04:35:12;99632.75;;;1.56;57.84
49342;BME280;35210;41.606;-87.602;2022-12-05T04:37:48;99633.72;;;1.53;57.92
49342;BME280;35210;41.606;-87.602;2022-12-05T04:40:28;99628.13;;;1.41;57.88
49342;BME280;35210;41.606;-87.602;2022-12-05T04:43:03;99630.53;;;1.47;57.99
49342;BME280;35210;41.606;-87.602;2022-12-05T04:45:34;99633.59;;;1.56;57.97
49342;BME280;35210;41.606;-87.602;2022-12-05T04:48:10;99635.16;;;1.39;58.53
49342;BME280;35210;41.606;-87.602;2022-12-05T04:50:44;99629.78;;;1.43;58.12
49342;BME280;35210;41.606;-87.602;2022-12-05T04:53:14;99617.84;;;1.38;58.33
49342;BME280;35210;41.606;-87.602;2022-12-05T04:55:46;99623.59;;;1.22;58.75
49342;BME280;35210;41.606;-87.602;2022-12-05T04:58:18;99623.28;;;1.31;58.33
49342;BME280;35210;41.606;-87.602;2022-12-05T05:00:53;99616.47;;;1.27;58.39
49342;BME280;35210;41.606;-87.602;2022-12-05T05:03:26;99611.06;;;1.34;58.51
49342;BME280;35210;41.606;-87.602;2022-12-05T05:05:58;99613.44;;;1.40;58.14
49342;BME280;35210;41.606;-87.602;2022-12-05T05:08:27;99617.84;;;1.38;57.93
49342;BME280;35210;41.606;-87.602;2022-12-05T05:11:03;99616.16;;;1.37;58.04
49342;BME280;35210;41.606;-87.602;2022-12-05T05:13:33;99613.72;;;1.32;58.05
49342;BME280;35210;41.606;-87.602;2022-12-05T05:16:03;99610.88;;;1.15;58.47
49342;BME280;35210;41.606;-87.602;2022-12-05T05:18:33;99603.75;;;1.20;58.98
49342;BME280;35210;41.606;-87.602;2022-12-05T05:21:03;99606.53;;;0.90;59.49
49342;BME280;35210;41.606;-87.602;2022-12-05T05:23:34;99598.13;;;1.07;59.38
49342;BME280;35210;41.606;-87.602;2022-12-05T05:26:05;99577.97;;;1.14;59.14
49342;BME280;35210;41.606;-87.602;2022-12-05T05:28:33;99577.34;;;1.07;59.42
49342;BME280;35210;41.606;-87.602;2022-12-05T05:31:03;99588.81;;;1.02;59.16
49342;BME280;35210;41.606;-87.602;2022-12-05T05:33:31;99587.84;;;1.04;59.83
49342;BME280;35210;41.606;-87.602;2022-12-05T05:36:04;99583.50;;;1.05;59.41
49342;BME280;35210;41.606;-87.602;2022-12-05T05:38:35;99573.88;;;1.07;59.50
49342;BME280;35210;41.606;-87.602;2022-12-05T05:41:05;99582.81;;;0.99;59.45
49342;BME280;35210;41.606;-87.602;2022-12-05T05:43:34;99572.94;;;0.84;60.32
49342;BME280;35210;41.606;-87.602;2022-12-05T05:46:04;99571.72;;;0.94;59.90
49342;BME280;35210;41.606;-87.602;2022-12-05T05:48:32;99569.34;;;0.88;60.05
49342;BME280;35210;41.606;-87.602;2022-12-05T05:51:02;99564.41;;;0.81;60.07
49342;BME280;35210;41.606;-87.602;2022-12-05T05:53:33;99558.94;;;0.88;60.07
49342;BME280;35210;41.606;-87.602;2022-12-05T05:56:02;99564.19;;;0.87;60.07
49342;BME280;35210;41.606;-87.602;2022-12-05T05:58:31;99551.81;;;0.93;59.94
49342;BME280;35210;41.606;-87.602;2022-12-05T06:01:09;99551.50;;;1.03;59.33
49342;BME280;35210;41.606;-87.602;2022-12-05T06:03:39;99540.91;;;0.84;59.45
49342;BME280;35210;41.606;-87.602;2022-12-05T06:06:10;99538.19;;;0.87;59.66
49342;BME280;35210;41.606;-87.602;2022-12-05T06:08:42;99536.88;;;0.75;59.91
49342;BME280;35210;41.606;-87.602;2022-12-05T06:11:11;99540.91;;;0.84;60.11
49342;BME280;35210;41.606;-87.602;2022-12-05T06:13:40;99538.78;;;0.72;60.21
49342;BME280;35210;41.606;-87.602;2022-12-05T06:16:11;99537.63;;;0.55;60.62
49342;BME280;35210;41.606;-87.602;2022-12-05T06:18:39;99544.09;;;0.69;60.17
49342;BME280;35210;41.606;-87.602;2022-12-05T06:21:08;99532.94;;;0.65;60.39
49342;BME280;35210;41.606;-87.602;2022-12-05T06:23:37;99534.75;;;0.63;60.43
49342;BME280;35210;41.606;-87.602;2022-12-05T06:26:10;99527.69;;;0.67;60.50
49342;BME280;35210;41.606;-87.602;2022-12-05T06:28:39;99528.19;;;0.53;60.79
49342;BME280;35210;41.606;-87.602;2022-12-05T06:31:12;99521.81;;;0.61;60.85
49342;BME280;35210;41.606;-87.602;2022-12-05T06:33:41;99513.38;;;0.55;60.80
49342;BME280;35210;41.606;-87.602;2022-12-05T06:36:14;99508.44;;;0.47;60.80
49342;BME280;35210;41.606;-87.602;2022-12-05T06:38:43;99503.34;;;0.44;61.27
49342;BME280;35210;41.606;-87.602;2022-12-05T06:41:15;99504.22;;;0.45;60.75
49342;BME280;35210;41.606;-87.602;2022-12-05T06:43:44;99499.81;;;0.47;60.94
49342;BME280;35210;41.606;-87.602;2022-12-05T06:46:14;99508.88;;;0.35;61.33
49342;BME280;35210;41.606;-87.602;2022-12-05T06:48:56;99497.00;;;0.28;61.75
49342;BME280;35210;41.606;-87.602;2022-12-05T06:51:26;99491.06;;;0.24;61.71
49342;BME280;35210;41.606;-87.602;2022-12-05T06:53:55;99481.56;;;0.23;62.03
49342;BME280;35210;41.606;-87.602;2022-12-05T06:56:25;99482.56;;;0.19;62.21
49342;BME280;35210;41.606;-87.602;2022-12-05T06:58:56;99483.72;;;0.11;62.17
49342;BME280;35210;41.606;-87.602;2022-12-05T07:01:25;99477.03;;;0.04;62.94
49342;BME280;35210;41.606;-87.602;2022-12-05T07:04:09;99473.41;;;0.09;62.38
49342;BME280;35210;41.606;-87.602;2022-12-05T07:06:40;99461.56;;;0.00;62.69
49342;BME280;35210;41.606;-87.602;2022-12-05T07:09:08;99469.53;;;-0.04;63.11
49342;BME280;35210;41.606;-87.602;2022-12-05T07:11:38;99460.13;;;-0.07;63.31
49342;BME280;35210;41.606;-87.602;2022-12-05T07:14:07;99467.00;;;-0.06;63.07
49342;BME280;35210;41.606;-87.602;2022-12-05T07:16:36;99460.06;;;-0.31;64.25
49342;BME280;35210;41.606;-87.602;2022-12-05T07:19:04;99463.22;;;-0.22;63.75
49342;BME280;35210;41.606;-87.602;2022-12-05T07:21:33;99452.97;;;-0.26;63.52
49342;BME280;35210;41.606;-87.602;2022-12-05T07:24:01;99465.50;;;-0.39;64.60
49342;BME280;35210;41.606;-87.602;2022-12-05T07:26:29;99462.66;;;-0.31;64.23
49342;BME280;35210;41.606;-87.602;2022-12-05T07:28:59;99462.81;;;-0.36;64.57
49342;BME280;35210;41.606;-87.602;2022-12-05T07:31:27;99465.34;;;-0.35;64.53
49342;BME280;35210;41.606;-87.602;2022-12-05T07:33:55;99473.53;;;-0.20;63.77
49342;BME280;35210;41.606;-87.602;2022-12-05T07:36:23;99484.13;;;-0.26;63.96
49342;BME280;35210;41.606;-87.602;2022-12-05T07:38:54;99486.56;;;-0.22;64.08
49342;BME280;35210;41.606;-87.602;2022-12-05T07:41:24;99493.41;;;-0.19;63.88
49342;BME280;35210;41.606;-87.602;2022-12-05T07:43:54;99489.16;;;-0.22;64.32
49342;BME280;35210;41.606;-87.602;2022-12-05T07:46:25;99498.00;;;-0.27;64.50
49342;BME280;35210;41.606;-87.602;2022-12-05T07:48:54;99503.94;;;-0.24;64.11
49342;BME280;35210;41.606;-87.602;2022-12-05T07:51:22;99494.34;;;-0.22;64.37
49342;BME280;35210;41.606;-87.602;2022-12-05T07:53:50;99506.38;;;-0.19;64.24
49342;BME280;35210;41.606;-87.602;2022-12-05T07:56:18;99501.19;;;-0.19;64.42
49342;BME280;35210;41.606;-87.602;2022-12-05T07:58:48;99500.34;;;-0.20;64.22
49342;BME280;35210;41.606;-87.602;2022-12-05T08:01:18;99504.59;;;-0.17;64.23
49342;BME280;35210;41.606;-87.602;2022-12-05T08:03:48;99501.03;;;-0.15;64.18
49342;BME280;35210;41.606;-87.602;2022-12-05T08:06:19;99494.09;;;-0.14;64.10
49342;BME280;35210;41.606;-87.602;2022-12-05T08:08:48;99491.41;;;-0.11;64.33
49342;BME280;35210;41.606;-87.602;2022-12-05T08:11:18;99494.16;;;-0.16;64.23
49342;BME280;35210;41.606;-87.602;2022-12-05T08:13:47;99502.69;;;-0.12;64.45
49342;BME280;35210;41.606;-87.602;2022-12-05T08:16:18;99497.50;;;-0.12;64.29
49342;BME280;35210;41.606;-87.602;2022-12-05T08:18:48;99504.44;;;-0.13;64.53
49342;BME280;35210;41.606;-87.602;2022-12-05T08:21:18;99505.97;;;-0.07;64.44
49342;BME280;35210;41.606;-87.602;2022-12-05T08:23:46;99503.34;;;-0.06;63.98
49342;BME280;35210;41.606;-87.602;2022-12-05T08:26:15;99502.50;;;-0.06;64.72
49342;BME280;35210;41.606;-87.602;2022-12-05T08:28:46;99501.63;;;-0.07;63.98
49342;BME280;35210;41.606;-87.602;2022-12-05T08:31:21;99494.56;;;-0.02;64.42
49342;BME280;35210;41.606;-87.602;2022-12-05T08:33:52;99487.53;;;0.00;64.25
49342;BME280;35210;41.606;-87.602;2022-12-05T08:36:20;99500.34;;;0.05;64.45
49342;BME280;35210;41.606;-87.602;2022-12-05T08:38:48;99490.94;;;0.03;64.42
49342;BME280;35210;41.606;-87.602;2022-12-05T08:41:17;99491.72;;;0.05;64.31
49342;BME280;35210;41.606;-87.602;2022-12-05T08:43:45;99494.59;;;-0.03;64.68
49342;BME280;35210;41.606;-87.602;2022-12-05T08:46:13;99492.00;;;-0.03;64.84
49342;BME280;35210;41.606;-87.602;2022-12-05T08:48:42;99495.34;;;-0.26;65.63
49342;BME280;35210;41.606;-87.602;2022-12-05T08:51:12;99487.41;;;-0.21;65.53
49342;BME280;35210;41.606;-87.602;2022-12-05T08:53:40;99489.91;;;-0.18;65.43
49342;BME280;35210;41.606;-87.602;2022-12-05T08:56:10;99480.81;;;-0.31;65.85
49342;BME280;35210;41.606;-87.602;2022-12-05T08:58:38;99481.53;;;-0.26;65.93
49342;BME280;35210;41.606;-87.602;2022-12-05T09:01:08;99475.19;;;-0.18;65.81
49342;BME280;35210;41.606;-87.602;2022-12-05T09:03:37;99473.59;;;-0.22;65.95
49342;BME280;35210;41.606;-87.602;2022-12-05T09:06:06;99467.50;;;-0.21;66.39
49342;BME280;35210;41.606;-87.602;2022-12-05T09:08:37;99462.06;;;-0.13;65.64
49342;BME280;35210;41.606;-87.602;2022-12-05T09:11:06;99460.38;;;-0.14;65.58
49342;BME280;35210;41.606;-87.602;2022-12-05T09:13:34;99466.31;;;-0.11;65.95
49342;BME280;35210;41.606;-87.602;2022-12-05T09:16:06;99444.94;;;-0.19;65.67
49342;BME280;35210;41.606;-87.602;2022-12-05T09:18:34;99425.78;;;-0.15;65.97
49342;BME280;35210;41.606;-87.602;2022-12-05T09:21:06;99425.78;;;-0.15;65.94
49342;BME280;35210;41.606;-87.602;2022-12-05T09:23:36;99417.84;;;-0.10;65.36
49342;BME280;35210;41.606;-87.602;2022-12-05T09:26:06;99415.59;;;-0.21;65.71
49342;BME280;35210;41.606;-87.602;2022-12-05T09:28:34;99412.84;;;-0.16;65.75
49342;BME280;35210;41.606;-87.602;2022-12-05T09:31:03;99408.19;;;-0.07;65.19
49342;BME280;35210;41.606;-87.602;2022-12-05T09:33:34;99412.97;;;-0.19;65.68
49342;BME280;35210;41.606;-87.602;2022-12-05T09:36:03;99404.47;;;0.00;64.79
49342;BME280;35210;41.606;-87.602;2022-12-05T09:38:32;99405.44;;;-0.02;65.27
49342;BME280;35210;41.606;-87.602;2022-12-05T09:41:07;99381.00;;;0.04;65.35
49342;BME280;35210;41.606;-87.602;2022-12-05T09:43:45;99372.88;;;0.13;64.71
49342;BME280;35210;41.606;-87.602;2022-12-05T09:46:22;99370.22;;;0.14;64.82
49342;BME280;35210;41.606;-87.602;2022-12-05T09:48:54;99367.06;;;0.06;64.51
49342;BME280;35210;41.606;-87.602;2022-12-05T09:51:25;99360.59;;;0.18;64.81
49342;BME280;35210;41.606;-87.602;2022-12-05T09:53:54;99356.50;;;0.11;64.67
49342;BME280;35210;41.606;-87.602;2022-12-05T09:56:26;99355.44;;;0.16;65.02
49342;BME280;35210;41.606;-87.602;2022-12-05T09:58:57;99359.50;;;0.23;64.63
49342;BME280;35210;41.606;-87.602;2022-12-05T10:01:36;99350.72;;;0.27;64.51
49342;BME280;35210;41.606;-87.602;2022-12-05T10:04:20;99351.44;;;0.31;64.75
49342;BME280;35210;41.606;-87.602;2022-12-05T10:07:00;99341.78;;;0.35;64.23
49342;BME280;35210;41.606;-87.602;2022-12-05T10:09:43;99337.56;;;0.32;64.15
49342;BME280;35210;41.606;-87.602;2022-12-05T10:12:32;99345.06;;;0.40;63.86
49342;BME280;35210;41.606;-87.602;2022-12-05T10:15:11;99345.91;;;0.40;64.01
49342;BME280;35210;41.606;-87.602;2022-12-05T10:17:44;99345.34;;;0.32;64.69
49342;BME280;35210;41.606;-87.602;2022-12-05T10:20:18;99340.31;;;0.27;64.56
49342;BME280;35210;41.606;-87.602;2022-12-05T10:22:52;99334.34;;;0.25;64.74
49342;BME280;35210;41.606;-87.602;2022-12-05T10:25:26;99340.44;;;0.24;64.96
49342;BME280;35210;41.606;-87.602;2022-12-05T10:28:00;99341.97;;;0.30;65.02
49342;BME280;35210;41.606;-87.602;2022-12-05T10:30:30;99350.88;;;0.23;65.38
49342;BME280;35210;41.606;-87.602;2022-12-05T10:33:00;99349.63;;;0.33;65.15
49342;BME280;35210;41.606;-87.602;2022-12-05T10:35:33;99348.91;;;0.29;65.28
49342;BME280;35210;41.606;-87.602;2022-12-05T10:38:04;99346.25;;;0.31;65.40
49342;BME280;35210;41.606;-87.602;2022-12-05T10:40:35;99339.88;;;0.40;65.27
49342;BME280;35210;41.606;-87.602;2022-12-05T10:43:08;99337.38;;;0.37;65.30
49342;BME280;35210;41.606;-87.602;2022-12-05T10:45:42;99323.78;;;0.30;65.41
49342;BME280;35210;41.606;-87.602;2022-12-05T10:48:12;99321.19;;;0.30;65.52
49342;BME280;35210;41.606;-87.602;2022-12-05T10:50:43;99325.38;;;0.34;65.61
49342;BME280;35210;41.606;-87.602;2022-12-05T10:53:16;99309.44;;;0.20;65.72
49342;BME280;35210;41.606;-87.602;2022-12-05T10:55:47;99298.03;;;0.24;65.80
49342;BME280;35210;41.606;-87.602;2022-12-05T10:58:19;99289.34;;;0.25;66.20
49342;BME280;35210;41.606;-87.602;2022-12-05T11:00:51;99287.53;;;0.27;66.07
49342;BME280;35210;41.606;-87.602;2022-12-05T11:03:26;99280.41;;;0.32;66.07
49342;BME280;35210;41.606;-87.602;2022-12-05T11:05:57;99275.44;;;0.26;66.34
49342;BME280;35210;41.606;-87.602;2022-12-05T11:08:28;99269.00;;;0.36;65.97
49342;BME280;35210;41.606;-87.602;2022-12-05T11:11:03;99270.03;;;0.32;66.13
49342;BME280;35210;41.606;-87.602;2022-12-05T11:13:33;99271.50;;;0.39;65.98
49342;BME280;35210;41.606;-87.602;2022-12-05T11:16:03;99285.38;;;0.38;65.99
49342;BME280;35210;41.606;-87.602;2022-12-05T11:18:33;99281.66;;;0.45;66.36
49342;BME280;35210;41.606;-87.602;2022-12-05T11:21:10;99279.91;;;0.46;65.79
49342;BME280;35210;41.606;-87.602;2022-12-05T11:23:39;99280.06;;;0.41;66.05
49342;BME280;35210;41.606;-87.602;2022-12-05T11:26:17;99285.44;;;0.37;66.10
49342;BME280;35210;41.606;-87.602;2022-12-05T11:28:47;99285.50;;;0.35;66.17
49342;BME280;35210;41.606;-87.602;2022-12-05T11:31:25;99281.75;;;0.42;66.42
49342;BME280;35210;41.606;-87.602;2022-12-05T11:34:10;99268.00;;;0.40;66.67
49342;BME280;35210;41.606;-87.602;2022-12-05T11:36:43;99264.50;;;0.41;66.43
49342;BME280;35210;41.606;-87.602;2022-12-05T11:39:13;99259.19;;;0.44;66.43
49342;BME280;35210;41.606;-87.602;2022-12-05T11:41:54;99260.03;;;0.45;66.73
49342;BME280;35210;41.606;-87.602;2022-12-05T11:44:44;99265.16;;;0.46;66.84
49342;BME280;35210;41.606;-87.602;2022-12-05T11:47:27;99271.25;;;0.45;66.92
49342;BME280;35210;41.606;-87.602;2022-12-05T11:50:17;99286.00;;;0.45;67.09
49342;BME280;35210;41.606;-87.602;2022-12-05T11:53:00;99292.53;;;0.55;66.82
49342;BME280;35210;41.606;-87.602;2022-12-05T11:55:36;99295.25;;;0.52;66.72
49342;BME280;35210;41.606;-87.602;2022-12-05T11:58:29;99283.66;;;0.60;66.21
49342;BME280;35210;41.606;-87.602;2022-12-05T12:01:13;99275.69;;;0.65;66.57
49342;BME280;35210;41.606;-87.602;2022-12-05T12:06:47;99298.16;;;0.66;66.71
49342;BME280;35210;41.606;-87.602;2022-12-05T12:09:29;99295.56;;;0.66;66.32
49342;BME280;35210;41.606;-87.602;2022-12-05T12:12:05;99287.53;;;0.72;66.48
49342;BME280;35210;41.606;-87.602;2022-12-05T12:14:38;99290.13;;;0.72;66.39
49342;BME280;35210;41.606;-87.602;2022-12-05T12:17:22;99283.03;;;0.76;66.03
49342;BME280;35210;41.606;-87.602;2022-12-05T12:20:19;99293.25;;;0.80;66.10
49342;BME280;35210;41.606;-87.602;2022-12-05T12:23:13;99300.06;;;0.83;65.92
49342;BME280;35210;41.606;-87.602;2022-12-05T12:25:58;99318.88;;;0.89;65.68
49342;BME280;35210;41.606;-87.602;2022-12-05T12:28:38;99321.41;;;0.91;64.97
49342;BME280;35210;41.606;-87.602;2022-12-05T12:31:23;99314.47;;;0.91;65.24
49342;BME280;35210;41.606;-87.602;2022-12-05T12:34:06;99300.19;;;0.80;65.90
49342;BME280;35210;41.606;-87.602;2022-12-05T12:36:45;99296.81;;;0.78;65.61
49342;BME280;35210;41.606;-87.602;2022-12-05T12:39:27;99305.22;;;0.62;66.42
49342;BME280;35210;41.606;-87.602;2022-12-05T12:42:11;99314.78;;;0.62;66.68
49342;BME280;35210;41.606;-87.602;2022-12-05T12:45:04;99309.88;;;0.54;66.73
49342;BME280;35210;41.606;-87.602;2022-12-05T12:47:42;99320.75;;;0.64;66.68
49342;BME280;35210;41.606;-87.602;2022-12-05T12:50:19;99304.78;;;0.51;67.04
49342;BME280;35210;41.606;-87.602;2022-12-05T12:53:08;99298.84;;;0.71;67.04
49342;BME280;35210;41.606;-87.602;2022-12-05T12:55:48;99292.91;;;0.68;66.41
49342;BME280;35210;41.606;-87.602;2022-12-05T12:58:31;99285.53;;;0.57;66.78
49342;BME280;35210;41.606;-87.602;2022-12-05T13:01:10;99297.00;;;0.51;67.38
49342;BME280;35210;41.606;-87.602;2022-12-05T13:03:46;99298.47;;;0.58;67.03
49342;BME280;35210;41.606;-87.602;2022-12-05T13:06:23;99289.88;;;0.56;66.78
49342;BME280;35210;41.606;-87.602;2022-12-05T13:08:56;99285.50;;;0.35;68.06
49342;BME280;35210;41.606;-87.602;2022-12-05T13:11:28;99288.66;;;0.43;68.10
49342;BME280;35210;41.606;-87.602;2022-12-05T13:14:01;99281.59;;;0.47;68.61
49342;BME280;35210;41.606;-87.602;2022-12-05T13:16:33;99267.53;;;0.52;68.26
49342;BME280;35210;41.606;-87.602;2022-12-05T13:19:05;99275.19;;;0.55;68.43
49342;BME280;35210;41.606;-87.602;2022-12-05T13:21:35;99272.25;;;0.64;67.75